createdAt,value
2019-02-12T00:00:26.445Z,11.18
2019-02-12T00:03:07.350Z,15.32
2019-02-12T00:05:45.528Z,13.22
2019-02-12T00:08:23.765Z,9.70
2019-02-12T00:11:00.340Z,10.72
2019-02-12T00:13:39.477Z,16.82
2019-02-12T00:16:23.919Z,16.25
2019-02-12T00:19:04.932Z,12.93
2019-02-12T00:21:48.732Z,4.75
2019-02-12T00:24:23.563Z,11.70
2019-02-12T00:27:00.933Z,12.55
2019-02-12T00:29:41.234Z,14.30
2019-02-12T00:32:20.863Z,9.78
2019-02-12T00:34:57.624Z,8.75
2019-02-12T00:37:42.388Z,14.63
2019-02-12T00:40:21.414Z,11.50
2019-02-12T00:43:02.065Z,9.13
2019-02-12T00:45:41.680Z,16.40
2019-02-12T00:48:20.441Z,8.43
2019-02-12T00:50:59.467Z,9.48
2019-02-12T00:53:40.467Z,16.75
2019-02-12T00:56:19.368Z,7.62
2019-02-12T00:59:00.369Z,7.87
2019-02-12T01:01:42.071Z,9.98
2019-02-12T01:04:21.468Z,11.05
2019-02-12T01:06:59.878Z,8.98
2019-02-12T01:09:38.741Z,15.78
2019-02-12T01:12:19.071Z,10.55
2019-02-12T01:15:06.378Z,18.12
2019-02-12T01:17:43.873Z,8.50
2019-02-12T01:20:23.592Z,10.70
2019-02-12T01:23:05.847Z,19.25
2019-02-12T01:25:51.010Z,7.40
2019-02-12T01:28:35.448Z,13.83
2019-02-12T01:31:20.080Z,14.58
2019-02-12T01:34:01.055Z,18.12
2019-02-12T01:36:41.646Z,11.90
2019-02-12T01:39:25.141Z,14.63
2019-02-12T01:42:09.325Z,12.85
2019-02-12T01:44:45.757Z,12.88
2019-02-12T01:47:28.713Z,10.08
2019-02-12T01:50:08.045Z,17.98
2019-02-12T01:52:47.484Z,19.00
2019-02-12T01:55:29.687Z,15.60
2019-02-12T01:58:13.432Z,17.30
2019-02-12T02:00:56.695Z,21.75
2019-02-12T02:03:35.585Z,12.33
2019-02-12T02:06:20.058Z,21.37
2019-02-12T02:08:58.339Z,13.43
2019-02-12T02:11:37.887Z,11.63
2019-02-12T02:14:14.661Z,20.17
2019-02-12T02:16:56.392Z,11.12
2019-02-12T02:19:38.761Z,12.13
2019-02-12T02:22:28.861Z,18.73
2019-02-12T02:25:11.985Z,15.90
2019-02-12T02:27:52.263Z,15.78
2019-02-12T02:30:36.766Z,11.03
2019-02-12T02:33:15.537Z,12.43
2019-02-12T02:35:56.571Z,11.43
2019-02-12T02:38:36.724Z,11.20
2019-02-12T02:41:20.094Z,14.68
2019-02-12T02:44:03.869Z,9.08
2019-02-12T02:46:46.296Z,14.90
2019-02-12T02:49:23.769Z,16.85
2019-02-12T02:52:03.639Z,13.93
2019-02-12T02:54:44.425Z,9.10
2019-02-12T02:57:21.900Z,11.35
2019-02-12T03:00:02.055Z,12.25
2019-02-12T03:02:48.658Z,14.33
2019-02-12T03:05:30.474Z,9.70
2019-02-12T03:08:14.307Z,11.33
2019-02-12T03:10:53.421Z,11.50
2019-02-12T03:13:36.664Z,16.45
2019-02-12T03:16:15.175Z,10.28
2019-02-12T03:18:54.063Z,9.48
2019-02-12T03:21:32.855Z,12.13
2019-02-12T03:24:08.870Z,11.00
2019-02-12T03:26:49.221Z,12.85
2019-02-12T03:29:26.956Z,10.15
2019-02-12T03:32:07.587Z,18.02
2019-02-12T03:34:51.836Z,18.23
2019-02-12T03:37:33.015Z,14.95
2019-02-12T03:40:12.294Z,18.05
2019-02-12T03:42:57.110Z,19.12
2019-02-12T03:45:33.722Z,15.18
2019-02-12T03:48:12.924Z,9.20
2019-02-12T03:50:52.175Z,10.70
2019-02-12T03:53:35.888Z,12.85
2019-02-12T03:56:14.813Z,11.38
2019-02-12T03:58:52.815Z,19.67
2019-02-12T04:01:30.560Z,13.05
2019-02-12T04:04:07.987Z,10.82
2019-02-12T04:06:46.868Z,13.53
2019-02-12T04:09:27.186Z,15.68
2019-02-12T04:12:06.118Z,10.32
2019-02-12T04:14:48.477Z,12.28
2019-02-12T04:17:32.569Z,8.43
2019-02-12T04:20:12.613Z,10.98
2019-02-12T04:22:52.892Z,11.88
2019-02-12T04:25:30.423Z,14.87
2019-02-12T04:28:10.022Z,13.50
2019-02-12T04:30:48.922Z,15.60
2019-02-12T04:33:33.395Z,15.35
2019-02-12T04:36:16.497Z,14.50
2019-02-12T04:38:57.527Z,12.82
2019-02-12T04:41:41.736Z,14.65
2019-02-12T04:44:22.926Z,16.52
2019-02-12T04:46:59.103Z,11.83
2019-02-12T04:49:35.868Z,14.13
2019-02-12T04:52:16.607Z,10.93
2019-02-12T04:54:54.201Z,22.37
2019-02-12T04:57:34.001Z,9.35
2019-02-12T05:00:18.982Z,17.70
2019-02-12T05:02:55.790Z,15.55
2019-02-12T05:05:36.999Z,13.93
2019-02-12T05:08:14.328Z,12.82
2019-02-12T05:10:57.480Z,21.35
2019-02-12T05:13:35.131Z,9.00
2019-02-12T05:16:17.481Z,16.65
2019-02-12T05:19:02.172Z,10.78
2019-02-12T05:21:40.760Z,11.25
2019-02-12T05:24:22.636Z,8.63
2019-02-12T05:27:03.217Z,12.37
2019-02-12T05:29:41.805Z,11.40
2019-02-12T05:32:20.739Z,14.63
2019-02-12T05:35:00.394Z,15.58
2019-02-12T05:37:40.972Z,19.23
2019-02-12T05:40:24.409Z,9.15
2019-02-12T05:43:07.464Z,13.15
2019-02-12T05:45:45.577Z,18.55
2019-02-12T05:48:26.710Z,13.95
2019-02-12T05:51:14.714Z,15.72
2019-02-12T05:54:00.150Z,9.90
2019-02-12T05:56:43.291Z,15.93
2019-02-12T05:59:26.624Z,16.20
2019-02-12T06:02:11.088Z,16.60
2019-02-12T06:04:52.324Z,9.00
2019-02-12T06:07:40.317Z,12.85
2019-02-12T06:10:19.403Z,18.48
2019-02-12T06:13:02.981Z,21.55
2019-02-12T06:15:43.349Z,11.40
2019-02-12T06:18:28.521Z,14.15
2019-02-12T06:21:10.949Z,9.58
2019-02-12T06:23:50.571Z,10.98
2019-02-12T06:26:30.149Z,11.93
2019-02-12T06:29:14.667Z,10.53
2019-02-12T06:32:00.523Z,12.20
2019-02-12T06:34:42.251Z,11.28
2019-02-12T06:37:23.953Z,15.72
2019-02-12T06:40:02.125Z,10.20
2019-02-12T06:42:41.500Z,15.55
2019-02-12T06:45:24.126Z,12.88
2019-02-12T06:48:07.000Z,15.75
2019-02-12T06:50:47.555Z,16.48
2019-02-12T06:53:30.655Z,13.80
2019-02-12T06:56:11.630Z,14.03
2019-02-12T06:58:49.829Z,15.65
2019-02-12T07:01:29.457Z,14.40
2019-02-12T07:04:14.657Z,16.02
2019-02-12T07:07:04.730Z,10.03
2019-02-12T07:09:48.387Z,14.25
2019-02-12T07:12:42.865Z,11.63
2019-02-12T07:15:29.013Z,16.65
2019-02-12T07:18:27.961Z,8.30
2019-02-12T07:21:16.661Z,13.60
2019-02-12T07:24:07.434Z,16.10
2019-02-12T07:26:58.263Z,15.20
2019-02-12T07:30:02.341Z,14.13
2019-02-12T07:33:12.739Z,10.38
2019-02-12T07:36:21.179Z,14.20
2019-02-12T07:39:09.147Z,9.98
2019-02-12T07:41:54.369Z,12.60
2019-02-12T07:44:50.042Z,11.88
2019-02-12T07:47:33.432Z,16.37
2019-02-12T07:50:27.369Z,13.70
2019-02-12T07:53:10.442Z,14.05
2019-02-12T07:55:59.583Z,12.10
2019-02-12T07:58:51.307Z,16.37
2019-02-12T08:01:40.585Z,13.93
2019-02-12T08:04:57.318Z,13.38
2019-02-12T08:07:35.761Z,18.75
2019-02-12T08:10:45.036Z,12.30
2019-02-12T08:13:58.121Z,14.63
2019-02-12T08:16:51.447Z,21.97
2019-02-12T08:20:01.879Z,18.15
2019-02-12T08:22:59.677Z,12.33
2019-02-12T08:25:44.584Z,17.87
2019-02-12T08:28:52.060Z,24.27
2019-02-12T08:31:33.580Z,15.68
2019-02-12T08:34:34.757Z,11.73
2019-02-12T08:37:38.852Z,21.95
2019-02-12T08:40:43.150Z,20.88
2019-02-12T08:43:39.240Z,8.85
2019-02-12T08:46:19.600Z,11.05
2019-02-12T08:49:20.258Z,13.88
2019-02-12T08:52:03.514Z,13.00
2019-02-12T08:55:04.544Z,11.73
2019-02-12T08:58:16.667Z,13.32
2019-02-12T09:01:17.096Z,14.85
2019-02-12T09:04:30.259Z,8.43
2019-02-12T09:07:40.659Z,12.35
2019-02-12T09:10:39.188Z,15.03
2019-02-12T09:13:34.270Z,9.33
2019-02-12T09:16:28.882Z,12.35
2019-02-12T09:19:40.848Z,20.50
2019-02-12T09:22:22.651Z,16.07
2019-02-12T09:25:14.194Z,15.63
2019-02-12T09:28:29.234Z,12.82
2019-02-12T09:31:26.593Z,13.98
2019-02-12T09:34:13.893Z,9.20
2019-02-12T09:37:24.582Z,11.50
2019-02-12T09:40:22.653Z,12.37
2019-02-12T09:43:09.368Z,13.38
2019-02-12T09:45:55.272Z,16.35
2019-02-12T09:48:48.176Z,10.88
2019-02-12T09:51:41.070Z,13.38
2019-02-12T09:54:35.398Z,11.03
2019-02-12T09:57:25.499Z,13.83
2019-02-12T10:00:22.376Z,11.63
2019-02-12T10:03:16.306Z,11.43
2019-02-12T10:06:06.269Z,11.05
2019-02-12T10:09:02.003Z,9.13
2019-02-12T10:12:05.402Z,9.38
2019-02-12T10:14:54.364Z,9.55
2019-02-12T10:17:46.471Z,15.95
2019-02-12T10:20:41.345Z,12.65
2019-02-12T10:23:43.978Z,10.05
2019-02-12T10:26:35.447Z,17.00
2019-02-12T10:29:29.108Z,12.88
2019-02-12T10:32:09.028Z,14.10
2019-02-12T10:34:49.008Z,13.28
2019-02-12T10:37:29.277Z,10.58
2019-02-12T10:40:08.982Z,9.78
2019-02-12T10:42:47.810Z,9.33
2019-02-12T10:45:29.884Z,10.28
2019-02-12T10:48:11.508Z,14.68
2019-02-12T10:50:57.784Z,6.80
2019-02-12T10:53:40.885Z,10.80
2019-02-12T10:56:21.214Z,7.35
2019-02-12T10:59:06.415Z,6.47
2019-02-12T11:01:50.087Z,13.90
2019-02-12T11:04:28.963Z,16.65
2019-02-12T11:07:10.816Z,8.55
2019-02-12T11:09:53.468Z,11.28
2019-02-12T11:12:41.917Z,11.88
2019-02-12T11:15:27.117Z,19.30
2019-02-12T11:18:08.121Z,21.62
2019-02-12T11:20:53.992Z,8.23
2019-02-12T11:23:37.204Z,9.80
2019-02-12T11:26:18.120Z,7.12
2019-02-12T11:29:00.521Z,10.08
2019-02-12T11:31:43.593Z,10.43
2019-02-12T11:34:28.807Z,9.93
2019-02-12T11:37:16.239Z,14.35
2019-02-12T11:39:55.427Z,11.83
2019-02-12T11:42:41.567Z,6.78
2019-02-12T11:45:24.724Z,11.28
2019-02-12T11:48:04.324Z,9.18
2019-02-12T11:50:43.230Z,9.20
2019-02-12T11:53:32.370Z,15.63
2019-02-12T11:56:22.700Z,19.17
2019-02-12T11:59:07.228Z,6.05
2019-02-12T12:01:46.923Z,11.30
2019-02-12T12:04:28.498Z,10.48
2019-02-12T12:07:13.729Z,8.43
2019-02-12T12:10:02.559Z,9.85
2019-02-12T12:12:40.603Z,8.03
2019-02-12T12:15:21.473Z,11.20
2019-02-12T12:18:00.341Z,4.80
2019-02-12T12:20:44.305Z,8.28
2019-02-12T12:23:23.934Z,7.70
2019-02-12T12:26:05.525Z,5.75
2019-02-12T12:28:45.235Z,8.70
2019-02-12T12:31:26.236Z,5.85
2019-02-12T12:34:06.615Z,17.10
2019-02-12T12:36:54.536Z,11.48
2019-02-12T12:39:42.529Z,10.82
2019-02-12T12:42:23.403Z,14.28
2019-02-12T12:45:03.838Z,8.43
2019-02-12T12:47:42.043Z,10.55
2019-02-12T12:50:23.647Z,7.35
2019-02-12T12:53:06.227Z,12.53
2019-02-12T12:55:47.841Z,4.25
2019-02-12T12:58:29.613Z,10.28
2019-02-12T13:01:16.827Z,14.78
2019-02-12T13:03:55.743Z,8.10
2019-02-12T13:06:38.114Z,5.97
2019-02-12T13:09:19.845Z,9.90
2019-02-12T13:12:00.161Z,10.00
2019-02-12T13:14:42.574Z,10.68
2019-02-12T13:17:24.919Z,16.52
2019-02-12T13:20:10.151Z,9.43
2019-02-12T13:22:55.321Z,11.85
2019-02-12T13:25:37.049Z,3.80
2019-02-12T13:28:19.451Z,5.72
2019-02-12T13:31:01.852Z,8.95
2019-02-12T13:33:46.324Z,7.00
2019-02-12T13:36:29.514Z,4.65
2019-02-12T13:39:10.896Z,8.10
2019-02-12T13:41:51.726Z,7.12
2019-02-12T13:44:34.527Z,11.93
2019-02-12T13:47:15.668Z,8.10
2019-02-12T13:50:03.529Z,7.75
2019-02-12T13:52:43.156Z,15.00
2019-02-12T13:55:26.230Z,8.03
2019-02-12T13:58:08.221Z,8.13
2019-02-12T14:03:34.882Z,7.25
2019-02-12T14:06:20.308Z,6.72
2019-02-12T14:09:03.161Z,7.33
2019-02-12T14:11:46.675Z,6.05
2019-02-12T14:14:23.535Z,7.33
2019-02-12T14:17:04.063Z,7.40
2019-02-12T14:19:50.191Z,8.43
2019-02-12T14:22:33.737Z,5.58
2019-02-12T14:25:25.054Z,4.45
2019-02-12T14:27:59.269Z,7.58
2019-02-12T14:30:43.712Z,8.18
2019-02-12T14:33:21.269Z,9.08
2019-02-12T14:36:03.831Z,7.12
2019-02-12T14:38:46.772Z,8.55
2019-02-12T14:41:26.742Z,8.08
2019-02-12T14:44:08.072Z,8.55
2019-02-12T14:46:47.621Z,10.45
2019-02-12T14:49:32.872Z,4.53
2019-02-12T14:52:19.045Z,5.97
2019-02-12T14:54:56.979Z,9.68
2019-02-12T14:57:41.401Z,5.53
2019-02-12T15:00:28.085Z,7.12
2019-02-12T15:03:08.377Z,5.45
2019-02-12T15:05:50.886Z,4.15
2019-02-12T15:08:35.250Z,2.70
2019-02-12T15:11:25.819Z,6.40
2019-02-12T15:14:05.523Z,5.78
2019-02-12T15:16:45.311Z,13.85
2019-02-12T15:19:28.356Z,8.48
2019-02-12T15:22:14.023Z,6.08
2019-02-12T15:24:53.260Z,5.60
2019-02-12T15:27:35.552Z,6.90
2019-02-12T15:30:22.313Z,4.42
2019-02-12T15:33:03.854Z,7.85
2019-02-12T15:35:44.159Z,7.00
2019-02-12T15:38:32.154Z,5.37
2019-02-12T15:41:22.217Z,6.10
2019-02-12T15:44:16.728Z,6.10
2019-02-12T15:46:51.318Z,3.08
2019-02-12T15:49:35.089Z,4.60
2019-02-12T15:52:18.860Z,8.55
2019-02-12T15:55:04.688Z,5.45
2019-02-12T15:57:46.374Z,4.05
2019-02-12T16:00:27.524Z,4.05
2019-02-12T16:03:07.094Z,7.58
2019-02-12T16:05:50.162Z,5.65
2019-02-12T16:08:30.031Z,7.40
2019-02-12T16:11:06.584Z,4.95
2019-02-12T16:13:52.543Z,13.60
2019-02-12T16:16:35.566Z,5.58
2019-02-12T16:19:14.497Z,5.72
2019-02-12T16:21:56.847Z,8.53
2019-02-12T16:24:36.155Z,5.90
2019-02-12T16:27:21.145Z,8.10
2019-02-12T16:29:58.425Z,5.78
2019-02-12T16:32:40.329Z,5.35
2019-02-12T16:35:21.745Z,8.45
2019-02-12T16:38:06.371Z,6.30
2019-02-12T16:40:52.578Z,6.87
2019-02-12T16:43:31.792Z,6.92
2019-02-12T16:46:12.108Z,6.85
2019-02-12T16:48:51.899Z,8.88
2019-02-12T16:51:30.678Z,7.90
2019-02-12T16:54:08.906Z,6.37
2019-02-12T16:56:53.408Z,14.13
2019-02-12T16:59:32.535Z,4.83
2019-02-12T17:02:14.000Z,5.65
2019-02-12T17:04:56.983Z,8.73
2019-02-12T17:07:39.511Z,9.85
2019-02-12T17:10:21.912Z,6.08
2019-02-12T17:13:08.254Z,7.40
2019-02-12T17:15:50.883Z,6.45
2019-02-12T17:18:33.313Z,6.90
2019-02-12T17:21:13.736Z,8.35
2019-02-12T17:23:51.378Z,10.50
2019-02-12T17:26:35.251Z,14.10
2019-02-12T17:29:19.313Z,5.22
2019-02-12T17:32:04.079Z,6.72
2019-02-12T17:34:46.320Z,9.30
2019-02-12T17:37:26.618Z,10.82
2019-02-12T17:40:08.319Z,7.67
2019-02-12T17:42:49.147Z,13.08
2019-02-12T17:45:30.992Z,9.43
2019-02-12T17:48:14.710Z,10.45
2019-02-12T17:50:58.688Z,11.88
2019-02-12T17:53:37.611Z,18.00
2019-02-12T17:56:24.873Z,23.35
2019-02-12T17:59:00.197Z,23.47
2019-02-12T18:01:44.469Z,28.15
2019-02-12T18:04:29.201Z,96.08
2019-02-12T18:07:13.973Z,90.28
2019-02-12T18:09:55.609Z,42.95
2019-02-12T18:12:35.030Z,40.67
2019-02-12T18:15:18.802Z,33.67
2019-02-12T18:18:02.230Z,20.15
2019-02-12T18:20:44.305Z,15.63
2019-02-12T18:23:22.504Z,11.48
2019-02-12T18:26:02.806Z,15.55
2019-02-12T18:28:43.883Z,14.10
2019-02-12T18:31:26.887Z,17.77
2019-02-12T18:34:05.520Z,9.55
2019-02-12T18:36:46.834Z,8.30
2019-02-12T18:39:37.848Z,5.30
2019-02-12T18:42:19.069Z,35.03
2019-02-12T18:44:59.013Z,57.45
2019-02-12T18:47:39.834Z,20.50
2019-02-12T18:50:20.487Z,16.48
2019-02-12T18:53:02.654Z,15.68
2019-02-12T18:55:45.682Z,11.55
2019-02-12T18:58:24.402Z,8.68
2019-02-12T19:01:05.985Z,13.05
2019-02-12T19:03:43.776Z,11.38
2019-02-12T19:06:25.542Z,11.10
2019-02-12T19:09:02.480Z,10.93
2019-02-12T19:11:52.684Z,9.70
2019-02-12T19:14:29.244Z,13.40
2019-02-12T19:17:14.269Z,8.60
2019-02-12T19:19:56.118Z,8.13
2019-02-12T19:22:40.620Z,9.70
2019-02-12T19:25:23.047Z,16.62
2019-02-12T19:28:05.420Z,12.58
2019-02-12T19:30:50.648Z,13.05
2019-02-12T19:33:28.818Z,12.85
2019-02-12T19:36:09.824Z,12.82
2019-02-12T19:38:52.950Z,12.23
2019-02-12T19:41:35.187Z,13.38
2019-02-12T19:44:19.853Z,14.13
2019-02-12T19:47:09.225Z,11.65
2019-02-12T19:49:50.052Z,13.18
2019-02-12T19:52:31.253Z,9.38
2019-02-12T19:55:12.227Z,6.35
2019-02-12T19:57:50.043Z,8.03
2019-02-12T20:00:31.444Z,11.78
2019-02-12T20:03:11.845Z,7.15
2019-02-12T20:05:53.536Z,7.97
2019-02-12T20:08:35.797Z,9.63
2019-02-12T20:11:19.891Z,11.80
2019-02-12T20:13:59.931Z,6.97
2019-02-12T20:16:41.931Z,6.55
2019-02-12T20:19:18.429Z,5.80
2019-02-12T20:21:58.734Z,6.87
2019-02-12T20:24:42.098Z,6.60
2019-02-12T20:27:22.163Z,8.93
2019-02-12T20:30:15.764Z,8.98
2019-02-12T20:32:58.865Z,8.80
2019-02-12T20:35:43.366Z,9.23
2019-02-12T20:38:26.466Z,5.05
2019-02-12T20:41:04.639Z,10.28
2019-02-12T20:43:45.637Z,8.35
2019-02-12T20:46:28.077Z,16.07
2019-02-12T20:49:11.075Z,10.88
2019-02-12T20:51:53.572Z,8.08
2019-02-12T20:54:35.270Z,10.43
2019-02-12T20:57:15.358Z,6.28
2019-02-12T20:59:57.769Z,4.83
2019-02-12T21:02:39.645Z,6.25
2019-02-12T21:05:19.347Z,6.67
2019-02-12T21:07:59.657Z,7.75
2019-02-12T21:10:42.422Z,7.50
2019-02-12T21:13:24.344Z,8.48
2019-02-12T21:16:01.880Z,6.40
2019-02-12T21:18:43.757Z,11.33
2019-02-12T21:21:25.978Z,15.23
2019-02-12T21:24:08.249Z,12.65
2019-02-12T21:26:50.534Z,5.45
2019-02-12T21:29:26.885Z,8.20
2019-02-12T21:32:07.951Z,7.40
2019-02-12T21:34:48.181Z,10.18
2019-02-12T21:37:29.828Z,6.25
2019-02-12T21:40:07.061Z,10.18
2019-02-12T21:42:52.461Z,10.05
2019-02-12T21:45:36.386Z,11.22
2019-02-12T21:48:16.732Z,8.28
2019-02-12T21:50:59.085Z,6.70
2019-02-12T21:53:42.155Z,7.58
2019-02-12T21:56:18.960Z,11.22
2019-02-12T21:59:03.347Z,7.58
2019-02-12T22:01:46.588Z,7.33
2019-02-12T22:04:26.162Z,12.05
2019-02-12T22:07:10.663Z,10.85
2019-02-12T22:09:54.004Z,8.25
2019-02-12T22:12:32.920Z,8.60
2019-02-12T22:15:19.249Z,14.60
2019-02-12T22:17:56.793Z,8.93
2019-02-12T22:20:39.166Z,8.83
2019-02-12T22:23:18.794Z,7.15
2019-02-12T22:25:58.398Z,7.12
2019-02-12T22:28:39.398Z,6.60
2019-02-12T22:31:22.266Z,6.03
2019-02-12T22:33:59.274Z,8.18
2019-02-12T22:36:39.598Z,8.38
2019-02-12T22:39:20.501Z,7.45
2019-02-12T22:41:55.964Z,8.08
2019-02-12T22:44:36.277Z,9.68
2019-02-12T22:47:15.300Z,7.97
2019-02-12T22:49:54.074Z,13.05
2019-02-12T22:52:37.973Z,6.47
2019-02-12T22:55:18.331Z,7.50
2019-02-12T22:57:57.808Z,7.83
2019-02-12T23:00:52.150Z,5.90
2019-02-12T23:03:33.822Z,4.17
2019-02-12T23:06:12.007Z,6.42
2019-02-12T23:08:55.843Z,4.45
2019-02-12T23:11:36.966Z,4.40
2019-02-12T23:14:21.208Z,12.10
2019-02-12T23:17:03.273Z,12.18
2019-02-12T23:19:44.011Z,11.50
2019-02-12T23:22:23.618Z,4.37
2019-02-12T23:25:04.945Z,7.97
2019-02-12T23:27:47.270Z,7.33
2019-02-12T23:30:31.491Z,6.53
2019-02-12T23:33:13.584Z,6.80
2019-02-12T23:35:58.416Z,5.05
2019-02-12T23:38:38.717Z,4.17
2019-02-12T23:41:21.117Z,8.23
2019-02-12T23:44:01.417Z,7.42
2019-02-12T23:46:43.559Z,7.22
2019-02-12T23:49:24.119Z,7.10
2019-02-12T23:52:05.820Z,7.12
2019-02-12T23:54:48.221Z,13.60
2019-02-12T23:57:33.804Z,5.33
